createdAt,value
2023-03-19T00:02:30.858Z,55.64
2023-03-19T00:05:58.576Z,55.91
2023-03-19T00:09:28.521Z,55.96
2023-03-19T00:12:56.087Z,55.90
2023-03-19T00:16:25.056Z,55.87
2023-03-19T00:19:53.853Z,55.81
2023-03-19T00:23:24.399Z,55.92
2023-03-19T00:26:53.582Z,55.90
2023-03-19T00:30:21.232Z,56.04
2023-03-19T00:33:53.355Z,56.19
2023-03-19T00:37:23.001Z,56.13
2023-03-19T00:40:50.122Z,56.32
2023-03-19T00:44:18.096Z,56.37
2023-03-19T00:47:45.604Z,56.30
2023-03-19T00:51:14.038Z,56.37
2023-03-19T00:54:41.857Z,56.58
2023-03-19T00:58:10.446Z,56.42
2023-03-19T01:01:38.159Z,56.65
2023-03-19T01:05:04.741Z,56.66
2023-03-19T01:08:31.896Z,56.80
2023-03-19T01:11:58.948Z,56.73
2023-03-19T01:15:26.234Z,57.06
2023-03-19T01:18:53.791Z,57.22
2023-03-19T01:22:22.257Z,57.21
2023-03-19T01:25:54.445Z,57.19
2023-03-19T01:29:21.995Z,57.17
2023-03-19T01:32:52.367Z,57.32
2023-03-19T01:36:38.533Z,57.56
2023-03-19T01:40:07.731Z,57.77
2023-03-19T01:43:35.074Z,57.59
2023-03-19T01:47:38.526Z,57.74
2023-03-19T01:51:14.011Z,58.02
2023-03-19T02:00:17.282Z,58.38
2023-03-19T02:03:45.639Z,58.24
2023-03-19T02:07:18.797Z,58.18
2023-03-19T02:10:48.501Z,58.22
2023-03-19T02:14:15.571Z,58.35
2023-03-19T02:17:43.515Z,58.25
2023-03-19T02:21:15.346Z,58.33
2023-03-19T02:24:53.944Z,58.12
2023-03-19T02:28:23.829Z,58.47
2023-03-19T02:31:51.913Z,58.36
2023-03-19T02:35:19.351Z,58.49
2023-03-19T02:38:48.109Z,58.82
2023-03-19T02:42:18.948Z,58.74
2023-03-19T02:45:46.581Z,58.47
2023-03-19T02:49:14.434Z,58.64
2023-03-19T02:52:42.799Z,58.91
2023-03-19T02:56:13.031Z,58.74
2023-03-19T02:59:41.402Z,58.70
2023-03-19T03:03:09.106Z,58.92
2023-03-19T03:06:36.761Z,58.70
2023-03-19T03:10:06.317Z,59.17
2023-03-19T03:13:33.891Z,59.33
2023-03-19T03:17:02.148Z,59.17
2023-03-19T03:20:29.442Z,59.12
2023-03-19T03:23:57.224Z,59.08
2023-03-19T03:27:25.800Z,59.11
2023-03-19T03:30:53.314Z,59.39
2023-03-19T03:34:20.269Z,59.48
2023-03-19T03:37:46.978Z,59.52
2023-03-19T03:41:18.733Z,59.53
2023-03-19T03:44:45.655Z,59.83
2023-03-19T03:48:15.192Z,59.71
2023-03-19T03:51:42.761Z,59.77
2023-03-19T03:55:11.115Z,59.94
2023-03-19T03:58:38.058Z,60.00
2023-03-19T04:02:05.174Z,60.08
2023-03-19T04:05:32.569Z,59.81
2023-03-19T04:08:59.124Z,59.65
2023-03-19T04:12:26.524Z,59.78
2023-03-19T04:15:54.906Z,59.95
2023-03-19T04:19:22.161Z,59.78
2023-03-19T04:22:49.085Z,59.70
2023-03-19T04:26:16.388Z,59.56
2023-03-19T04:29:43.375Z,59.72
2023-03-19T04:33:11.169Z,59.93
2023-03-19T04:36:38.790Z,59.85
2023-03-19T04:40:06.814Z,60.17
2023-03-19T04:43:34.940Z,60.01
2023-03-19T04:47:03.208Z,60.33
2023-03-19T04:50:35.299Z,60.34
2023-03-19T04:54:02.778Z,60.33
2023-03-19T04:57:29.764Z,60.25
2023-03-19T05:00:56.755Z,60.45
2023-03-19T05:04:32.107Z,60.43
2023-03-19T05:08:03.804Z,60.32
2023-03-19T05:11:30.803Z,60.42
2023-03-19T05:15:06.750Z,60.62
2023-03-19T05:18:38.376Z,61.09
2023-03-19T05:22:06.576Z,60.87
2023-03-19T05:25:35.492Z,60.95
2023-03-19T05:29:05.214Z,61.00
2023-03-19T05:32:40.983Z,61.16
2023-03-19T05:36:12.631Z,61.15
2023-03-19T05:39:47.367Z,61.40
2023-03-19T05:43:14.985Z,61.28
2023-03-19T05:46:43.783Z,61.58
2023-03-19T05:50:13.142Z,61.64
2023-03-19T05:53:49.836Z,61.62
2023-03-19T05:57:42.587Z,61.74
2023-03-19T06:01:13.878Z,61.74
2023-03-19T06:04:40.439Z,61.54
2023-03-19T06:08:08.352Z,61.87
2023-03-19T06:11:53.378Z,61.49
2023-03-19T06:15:39.066Z,61.81
2023-03-19T06:19:23.639Z,61.68
2023-03-19T06:22:50.227Z,61.78
2023-03-19T06:26:17.547Z,61.94
2023-03-19T06:29:51.658Z,61.89
2023-03-19T06:33:26.050Z,61.99
2023-03-19T06:36:54.083Z,61.95
2023-03-19T06:40:20.869Z,61.70
2023-03-19T06:43:48.125Z,61.68
2023-03-19T06:47:15.640Z,61.59
2023-03-19T06:50:42.950Z,61.62
2023-03-19T06:54:10.015Z,61.66
2023-03-19T06:57:36.969Z,61.67
2023-03-19T07:01:04.033Z,61.66
2023-03-19T07:04:31.869Z,61.66
2023-03-19T07:07:58.747Z,61.31
2023-03-19T07:11:25.390Z,61.36
2023-03-19T07:14:52.198Z,61.29
2023-03-19T07:18:18.842Z,61.34
2023-03-19T07:21:45.719Z,61.27
2023-03-19T07:25:13.167Z,61.12
2023-03-19T07:28:40.482Z,61.14
2023-03-19T07:32:13.065Z,60.94
2023-03-19T07:35:39.765Z,61.11
2023-03-19T07:39:06.656Z,61.02
2023-03-19T07:42:34.159Z,61.12
2023-03-19T07:46:01.717Z,60.77
2023-03-19T07:49:28.625Z,60.90
2023-03-19T07:52:55.863Z,60.55
2023-03-19T07:56:23.180Z,60.48
2023-03-19T07:59:50.141Z,60.72
2023-03-19T08:03:17.418Z,60.82
2023-03-19T08:06:44.150Z,60.78
2023-03-19T08:10:18.672Z,60.54
2023-03-19T08:13:45.567Z,60.70
2023-03-19T08:17:12.850Z,60.66
2023-03-19T08:20:39.770Z,60.99
2023-03-19T08:24:07.125Z,60.22
2023-03-19T08:27:35.906Z,60.30
2023-03-19T08:31:10.148Z,59.94
2023-03-19T08:34:37.611Z,60.01
2023-03-19T08:38:04.004Z,60.09
2023-03-19T08:41:30.598Z,60.30
2023-03-19T08:44:57.136Z,59.92
2023-03-19T08:48:23.784Z,60.23
2023-03-19T08:51:51.037Z,60.08
2023-03-19T08:55:18.450Z,59.89
2023-03-19T08:58:45.831Z,59.86
2023-03-19T09:02:13.135Z,59.68
2023-03-19T09:05:40.275Z,59.72
2023-03-19T09:09:07.336Z,59.70
2023-03-19T09:12:34.268Z,59.56
2023-03-19T09:16:01.701Z,59.57
2023-03-19T09:19:28.558Z,59.34
2023-03-19T09:22:55.614Z,59.21
2023-03-19T09:26:22.832Z,59.14
2023-03-19T09:29:49.558Z,58.90
2023-03-19T09:33:17.484Z,58.74
2023-03-19T09:36:44.152Z,58.55
2023-03-19T09:40:24.832Z,58.41
2023-03-19T09:44:14.956Z,58.26
2023-03-19T09:47:42.103Z,58.33
2023-03-19T09:51:17.041Z,58.15
2023-03-19T09:54:49.102Z,57.93
2023-03-19T09:58:19.928Z,57.86
2023-03-19T10:01:54.639Z,57.87
2023-03-19T10:05:32.704Z,57.56
2023-03-19T10:09:25.377Z,57.53
2023-03-19T10:12:59.565Z,57.37
2023-03-19T10:16:29.052Z,57.21
2023-03-19T10:20:00.216Z,56.99
2023-03-19T10:23:45.907Z,56.95
2023-03-19T10:27:16.274Z,56.89
2023-03-19T10:30:47.356Z,56.67
2023-03-19T10:34:32.920Z,56.58
2023-03-19T10:38:10.020Z,56.41
2023-03-19T10:41:51.457Z,56.31
2023-03-19T10:45:26.573Z,56.24
2023-03-19T10:48:53.624Z,55.99
2023-03-19T10:52:31.409Z,55.75
2023-03-19T10:56:02.227Z,55.66
2023-03-19T10:59:35.112Z,55.45
2023-03-19T11:03:05.047Z,55.13
2023-03-19T11:06:36.514Z,55.01
2023-03-19T11:10:02.972Z,54.86
2023-03-19T11:13:30.242Z,54.60
2023-03-19T11:17:05.846Z,54.39
2023-03-19T11:20:36.605Z,54.41
2023-03-19T11:24:14.236Z,54.31
2023-03-19T11:27:42.463Z,53.95
2023-03-19T11:31:19.731Z,53.68
2023-03-19T11:34:55.076Z,53.52
2023-03-19T11:38:33.039Z,53.37
2023-03-19T11:42:36.157Z,53.45
2023-03-19T11:46:13.110Z,53.30
2023-03-19T11:49:51.029Z,52.95
2023-03-19T11:53:26.446Z,52.87
2023-03-19T11:57:01.265Z,52.72
2023-03-19T12:00:38.872Z,52.68
2023-03-19T12:04:29.527Z,52.42
2023-03-19T12:08:12.852Z,52.10
2023-03-19T12:11:44.674Z,51.81
2023-03-19T12:15:25.724Z,51.62
2023-03-19T12:19:23.424Z,51.52
2023-03-19T12:23:06.119Z,51.52
2023-03-19T12:26:41.173Z,51.18
2023-03-19T12:30:21.053Z,51.13
2023-03-19T12:33:58.451Z,51.07
2023-03-19T12:37:31.861Z,50.56
2023-03-19T12:41:04.976Z,50.53
2023-03-19T12:44:35.885Z,50.40
2023-03-19T12:48:08.739Z,50.02
2023-03-19T12:51:42.210Z,49.96
2023-03-19T12:55:14.171Z,49.72
2023-03-19T12:58:51.204Z,49.67
2023-03-19T13:02:26.949Z,49.57
2023-03-19T13:06:00.802Z,49.43
2023-03-19T13:09:30.302Z,49.50
2023-03-19T13:12:58.157Z,49.38
2023-03-19T13:16:36.525Z,49.52
2023-03-19T13:20:08.196Z,49.38
2023-03-19T13:23:38.575Z,49.15
2023-03-19T13:27:07.421Z,49.17
2023-03-19T13:30:35.249Z,48.91
2023-03-19T13:34:07.898Z,49.04
2023-03-19T13:37:34.988Z,48.98
2023-03-19T13:41:02.499Z,48.89
2023-03-19T13:44:37.902Z,48.87
2023-03-19T13:48:38.494Z,48.72
2023-03-19T13:52:35.292Z,48.79
2023-03-19T13:56:08.407Z,48.76
2023-03-19T13:59:44.474Z,48.71
2023-03-19T14:03:23.969Z,48.63
2023-03-19T14:06:54.151Z,48.66
2023-03-19T14:10:26.123Z,48.44
2023-03-19T14:13:55.223Z,48.42
2023-03-19T14:17:27.356Z,48.35
2023-03-19T14:21:07.177Z,48.31
2023-03-19T14:24:58.433Z,48.34
2023-03-19T14:28:31.123Z,48.43
2023-03-19T14:32:01.773Z,48.31
2023-03-19T14:35:29.721Z,48.42
2023-03-19T14:39:00.466Z,48.35
2023-03-19T14:42:35.667Z,48.37
2023-03-19T14:46:05.843Z,48.45
2023-03-19T14:49:58.842Z,48.42
2023-03-19T14:53:41.947Z,48.57
2023-03-19T14:57:20.229Z,48.52
2023-03-19T15:00:52.668Z,48.50
2023-03-19T15:04:23.012Z,48.47
2023-03-19T15:07:52.787Z,48.55
2023-03-19T15:11:55.052Z,48.35
2023-03-19T15:15:32.421Z,48.45
2023-03-19T15:18:59.788Z,48.51
2023-03-19T15:22:31.773Z,48.54
2023-03-19T15:26:02.102Z,48.64
2023-03-19T15:29:37.997Z,48.53
2023-03-19T15:33:13.786Z,48.55
2023-03-19T15:36:44.746Z,48.61
2023-03-19T15:40:19.215Z,48.50
2023-03-19T15:43:47.082Z,48.72
2023-03-19T15:47:21.593Z,48.71
2023-03-19T15:50:51.961Z,48.84
2023-03-19T15:54:19.640Z,49.02
2023-03-19T15:57:47.264Z,49.13
2023-03-19T16:01:16.696Z,49.15
2023-03-19T16:05:18.240Z,49.23
2023-03-19T16:08:35.463Z,49.22
2023-03-19T16:12:03.942Z,49.46
2023-03-19T16:15:41.771Z,49.40
2023-03-19T16:19:28.412Z,49.42
2023-03-19T16:22:58.820Z,49.45
2023-03-19T16:26:31.296Z,49.37
2023-03-19T16:30:01.885Z,49.49
2023-03-19T16:33:29.705Z,49.41
2023-03-19T16:36:59.199Z,49.50
2023-03-19T16:40:46.998Z,49.68
2023-03-19T16:44:19.359Z,49.85
2023-03-19T16:47:47.191Z,49.92
2023-03-19T16:51:18.655Z,50.10
2023-03-19T16:54:48.409Z,50.06
2023-03-19T16:58:23.924Z,50.13
2023-03-19T17:01:53.010Z,50.14
2023-03-19T17:05:20.141Z,50.25
2023-03-19T17:08:47.606Z,50.31
2023-03-19T17:12:18.037Z,50.56
2023-03-19T17:15:45.393Z,50.55
2023-03-19T17:19:20.024Z,50.68
2023-03-19T17:22:46.595Z,50.49
2023-03-19T17:26:23.854Z,50.62
2023-03-19T17:29:51.579Z,51.00
2023-03-19T17:33:25.919Z,50.89
2023-03-19T17:36:56.328Z,51.10
2023-03-19T17:40:28.644Z,51.14
2023-03-19T17:43:56.137Z,51.29
2023-03-19T17:47:24.694Z,51.33
2023-03-19T17:50:53.188Z,51.48
2023-03-19T17:54:20.250Z,51.68
2023-03-19T17:57:49.393Z,51.81
2023-03-19T18:01:21.840Z,51.81
2023-03-19T18:04:52.392Z,51.87
2023-03-19T18:08:24.181Z,52.11
2023-03-19T18:11:51.544Z,52.10
2023-03-19T18:15:19.965Z,52.17
2023-03-19T18:18:47.960Z,52.39
2023-03-19T18:22:21.783Z,52.44
2023-03-19T18:25:51.660Z,52.56
2023-03-19T18:29:24.172Z,52.62
2023-03-19T18:32:56.418Z,52.55
2023-03-19T18:36:27.992Z,52.81
2023-03-19T18:39:54.836Z,52.84
2023-03-19T18:43:22.318Z,52.91
2023-03-19T18:46:49.500Z,53.13
2023-03-19T18:50:25.149Z,53.02
2023-03-19T18:53:55.016Z,53.27
2023-03-19T18:57:27.030Z,53.27
2023-03-19T19:00:57.515Z,53.42
2023-03-19T19:04:27.846Z,53.43
2023-03-19T19:07:59.747Z,53.54
2023-03-19T19:11:27.630Z,53.63
2023-03-19T19:14:54.936Z,53.75
2023-03-19T19:18:32.003Z,53.81
2023-03-19T19:21:59.092Z,53.93
2023-03-19T19:25:28.044Z,54.03
2023-03-19T19:28:57.625Z,54.10
2023-03-19T19:32:26.688Z,54.25
2023-03-19T19:35:56.702Z,54.38
2023-03-19T19:39:24.685Z,54.34
2023-03-19T19:42:54.780Z,54.54
2023-03-19T19:46:23.179Z,54.68
2023-03-19T19:49:50.767Z,54.65
2023-03-19T19:53:23.809Z,54.71
2023-03-19T19:56:50.444Z,54.81
2023-03-19T20:00:24.271Z,54.88
2023-03-19T20:03:53.119Z,54.84
2023-03-19T20:07:20.010Z,55.17
2023-03-19T20:10:48.252Z,55.24
2023-03-19T20:14:16.337Z,55.26
2023-03-19T20:17:43.561Z,55.63
2023-03-19T20:21:12.832Z,55.49
2023-03-19T20:24:39.957Z,55.78
2023-03-19T20:28:11.486Z,55.88
2023-03-19T20:31:52.442Z,56.07
2023-03-19T20:35:25.259Z,55.93
2023-03-19T20:38:55.475Z,56.06
2023-03-19T20:42:23.944Z,56.14
2023-03-19T20:45:51.506Z,56.10
2023-03-19T20:49:20.918Z,56.40
2023-03-19T20:52:48.134Z,56.25
2023-03-19T20:56:18.863Z,56.35
2023-03-19T20:59:51.430Z,56.70
2023-03-19T21:03:27.388Z,56.78
2023-03-19T21:06:56.405Z,57.11
2023-03-19T21:10:33.974Z,57.01
2023-03-19T21:14:04.017Z,57.54
2023-03-19T21:17:38.816Z,57.48
2023-03-19T21:21:11.212Z,57.80
2023-03-19T21:24:40.850Z,57.97
2023-03-19T21:28:21.164Z,58.18
2023-03-19T21:31:53.038Z,58.42
2023-03-19T21:35:30.836Z,58.78
2023-03-19T21:38:58.543Z,58.78
2023-03-19T21:42:26.407Z,58.61
2023-03-19T21:45:55.203Z,58.62
2023-03-19T21:49:23.729Z,58.87
2023-03-19T21:52:59.764Z,59.03
2023-03-19T21:56:33.698Z,59.05
2023-03-19T22:00:02.263Z,58.96
2023-03-19T22:03:32.719Z,59.15
2023-03-19T22:07:01.002Z,59.26
2023-03-19T22:10:31.489Z,59.16
2023-03-19T22:14:06.382Z,59.42
2023-03-19T22:17:34.615Z,59.31
2023-03-19T22:21:01.913Z,59.01
2023-03-19T22:24:31.302Z,59.36
2023-03-19T22:28:01.210Z,59.51
2023-03-19T22:31:31.290Z,59.22
2023-03-19T22:34:58.750Z,59.38
2023-03-19T22:38:26.479Z,59.58
2023-03-19T22:41:53.666Z,59.75
2023-03-19T22:45:28.386Z,59.31
2023-03-19T22:48:56.965Z,59.55
2023-03-19T22:52:24.325Z,59.55
2023-03-19T22:55:52.736Z,59.78
2023-03-19T22:59:20.819Z,59.69
2023-03-19T23:02:55.212Z,59.89
2023-03-19T23:06:30.580Z,59.64
2023-03-19T23:10:01.034Z,59.63
2023-03-19T23:13:30.404Z,60.06
2023-03-19T23:17:02.390Z,59.92
2023-03-19T23:20:34.099Z,59.80
2023-03-19T23:24:01.553Z,59.81
2023-03-19T23:27:30.070Z,59.46
2023-03-19T23:30:56.635Z,59.86
2023-03-19T23:34:23.738Z,60.15
2023-03-19T23:37:55.212Z,60.16
2023-03-19T23:41:27.408Z,60.10
2023-03-19T23:44:57.695Z,60.08
2023-03-19T23:48:34.212Z,60.28
2023-03-19T23:52:02.205Z,60.43
2023-03-19T23:55:30.182Z,60.61
2023-03-19T23:58:59.262Z,60.60
